sensor_id;sensor_type;location;lat;lon;timestamp;temperature;humidity
20174;DHT22;10246;50.620;7.232;2022-10-22T00:01:20;14.50;25.60
20174;DHT22;10246;50.620;7.232;2022-10-22T00:03:47;14.50;25.50
20174;DHT22;10246;50.620;7.232;2022-10-22T00:06:14;14.50;25.80
20174;DHT22;10246;50.620;7.232;2022-10-22T00:08:40;14.50;25.90
20174;DHT22;10246;50.620;7.232;2022-10-22T00:11:10;14.40;26.00
20174;DHT22;10246;50.620;7.232;2022-10-22T00:13:37;14.50;26.50
20174;DHT22;10246;50.620;7.232;2022-10-22T00:16:04;14.50;26.50
20174;DHT22;10246;50.620;7.232;2022-10-22T00:18:31;14.50;27.00
20174;DHT22;10246;50.620;7.232;2022-10-22T00:20:58;14.50;27.00
20174;DHT22;10246;50.620;7.232;2022-10-22T00:23:25;14.50;27.20
20174;DHT22;10246;50.620;7.232;2022-10-22T00:25:52;14.50;27.40
20174;DHT22;10246;50.620;7.232;2022-10-22T00:28:20;14.60;28.20
20174;DHT22;10246;50.620;7.232;2022-10-22T00:30:47;14.50;28.40
20174;DHT22;10246;50.620;7.232;2022-10-22T00:33:14;14.60;28.40
20174;DHT22;10246;50.620;7.232;2022-10-22T00:35:40;14.60;28.50
20174;DHT22;10246;50.620;7.232;2022-10-22T00:38:09;14.50;27.80
20174;DHT22;10246;50.620;7.232;2022-10-22T00:40:35;14.50;27.80
20174;DHT22;10246;50.620;7.232;2022-10-22T00:43:02;14.50;28.10
20174;DHT22;10246;50.620;7.232;2022-10-22T00:45:31;14.50;28.20
20174;DHT22;10246;50.620;7.232;2022-10-22T00:48:01;14.50;28.20
20174;DHT22;10246;50.620;7.232;2022-10-22T00:50:32;14.50;28.00
20174;DHT22;10246;50.620;7.232;2022-10-22T00:52:59;14.50;28.40
20174;DHT22;10246;50.620;7.232;2022-10-22T00:55:28;14.50;28.50
20174;DHT22;10246;50.620;7.232;2022-10-22T00:57:56;14.60;28.50
20174;DHT22;10246;50.620;7.232;2022-10-22T01:00:23;14.60;28.50
20174;DHT22;10246;50.620;7.232;2022-10-22T01:02:53;14.60;28.50
20174;DHT22;10246;50.620;7.232;2022-10-22T01:05:20;14.60;28.50
20174;DHT22;10246;50.620;7.232;2022-10-22T01:07:48;14.60;28.50
20174;DHT22;10246;50.620;7.232;2022-10-22T01:10:40;14.60;28.50
20174;DHT22;10246;50.620;7.232;2022-10-22T01:13:22;14.60;28.50
20174;DHT22;10246;50.620;7.232;2022-10-22T01:15:57;14.60;28.50
20174;DHT22;10246;50.620;7.232;2022-10-22T01:18:31;14.60;28.50
20174;DHT22;10246;50.620;7.232;2022-10-22T01:21:07;14.60;28.50
20174;DHT22;10246;50.620;7.232;2022-10-22T01:24:08;14.60;28.80
20174;DHT22;10246;50.620;7.232;2022-10-22T01:26:49;14.60;29.70
20174;DHT22;10246;50.620;7.232;2022-10-22T01:29:23;14.70;30.40
20174;DHT22;10246;50.620;7.232;2022-10-22T01:31:54;14.70;30.20
20174;DHT22;10246;50.620;7.232;2022-10-22T01:34:23;14.70;30.10
20174;DHT22;10246;50.620;7.232;2022-10-22T01:36:52;14.70;30.40
20174;DHT22;10246;50.620;7.232;2022-10-22T01:39:20;14.70;30.60
20174;DHT22;10246;50.620;7.232;2022-10-22T01:41:48;14.70;30.80
20174;DHT22;10246;50.620;7.232;2022-10-22T01:44:26;14.80;30.70
20174;DHT22;10246;50.620;7.232;2022-10-22T01:47:02;14.80;30.80
20174;DHT22;10246;50.620;7.232;2022-10-22T01:49:38;14.80;30.60
20174;DHT22;10246;50.620;7.232;2022-10-22T01:52:15;14.70;30.60
20174;DHT22;10246;50.620;7.232;2022-10-22T01:54:51;14.80;30.80
20174;DHT22;10246;50.620;7.232;2022-10-22T01:57:25;14.80;30.90
20174;DHT22;10246;50.620;7.232;2022-10-22T02:00:00;14.80;31.00
20174;DHT22;10246;50.620;7.232;2022-10-22T02:02:34;14.80;30.80
20174;DHT22;10246;50.620;7.232;2022-10-22T02:05:06;14.80;30.90
20174;DHT22;10246;50.620;7.232;2022-10-22T02:07:40;14.90;30.90
20174;DHT22;10246;50.620;7.232;2022-10-22T02:10:08;14.90;31.20
20174;DHT22;10246;50.620;7.232;2022-10-22T02:12:37;14.90;31.30
20174;DHT22;10246;50.620;7.232;2022-10-22T02:15:07;14.90;31.20
20174;DHT22;10246;50.620;7.232;2022-10-22T02:17:35;15.00;32.30
20174;DHT22;10246;50.620;7.232;2022-10-22T02:20:06;15.00;31.10
20174;DHT22;10246;50.620;7.232;2022-10-22T02:22:33;15.00;31.10
20174;DHT22;10246;50.620;7.232;2022-10-22T02:25:01;14.90;31.10
20174;DHT22;10246;50.620;7.232;2022-10-22T02:27:30;14.90;30.70
20174;DHT22;10246;50.620;7.232;2022-10-22T02:30:02;14.90;30.50
20174;DHT22;10246;50.620;7.232;2022-10-22T02:32:33;14.90;30.50
20174;DHT22;10246;50.620;7.232;2022-10-22T02:35:02;14.90;30.10
20174;DHT22;10246;50.620;7.232;2022-10-22T02:37:29;14.90;30.00
20174;DHT22;10246;50.620;7.232;2022-10-22T02:39:56;14.90;30.00
20174;DHT22;10246;50.620;7.232;2022-10-22T02:42:23;14.90;30.00
20174;DHT22;10246;50.620;7.232;2022-10-22T02:44:50;14.90;29.80
20174;DHT22;10246;50.620;7.232;2022-10-22T02:47:17;14.80;29.90
20174;DHT22;10246;50.620;7.232;2022-10-22T02:49:45;14.80;29.70
20174;DHT22;10246;50.620;7.232;2022-10-22T02:52:12;14.80;29.60
20174;DHT22;10246;50.620;7.232;2022-10-22T02:54:39;14.80;29.40
20174;DHT22;10246;50.620;7.232;2022-10-22T02:57:06;14.80;29.40
20174;DHT22;10246;50.620;7.232;2022-10-22T02:59:32;14.80;29.40
20174;DHT22;10246;50.620;7.232;2022-10-22T03:01:59;14.80;29.20
20174;DHT22;10246;50.620;7.232;2022-10-22T03:04:26;14.70;29.00
20174;DHT22;10246;50.620;7.232;2022-10-22T03:06:54;14.80;28.60
20174;DHT22;10246;50.620;7.232;2022-10-22T03:09:21;14.70;28.90
20174;DHT22;10246;50.620;7.232;2022-10-22T03:11:48;14.70;28.60
20174;DHT22;10246;50.620;7.232;2022-10-22T03:14:14;14.60;28.50
20174;DHT22;10246;50.620;7.232;2022-10-22T03:16:41;14.60;28.50
20174;DHT22;10246;50.620;7.232;2022-10-22T03:19:08;14.60;28.20
20174;DHT22;10246;50.620;7.232;2022-10-22T03:21:38;14.50;28.10
20174;DHT22;10246;50.620;7.232;2022-10-22T03:24:10;14.50;28.20
20174;DHT22;10246;50.620;7.232;2022-10-22T03:26:40;14.40;28.30
20174;DHT22;10246;50.620;7.232;2022-10-22T03:29:08;14.40;27.70
20174;DHT22;10246;50.620;7.232;2022-10-22T03:31:35;14.40;27.90
20174;DHT22;10246;50.620;7.232;2022-10-22T03:34:02;14.40;27.80
20174;DHT22;10246;50.620;7.232;2022-10-22T03:36:29;14.30;28.20
20174;DHT22;10246;50.620;7.232;2022-10-22T03:38:56;14.30;28.20
20174;DHT22;10246;50.620;7.232;2022-10-22T03:41:24;14.30;28.20
20174;DHT22;10246;50.620;7.232;2022-10-22T03:43:51;14.30;28.10
20174;DHT22;10246;50.620;7.232;2022-10-22T03:46:18;14.30;28.30
20174;DHT22;10246;50.620;7.232;2022-10-22T03:48:45;14.30;28.30
20174;DHT22;10246;50.620;7.232;2022-10-22T03:51:12;14.30;28.30
20174;DHT22;10246;50.620;7.232;2022-10-22T03:53:38;14.30;27.90
20174;DHT22;10246;50.620;7.232;2022-10-22T03:56:07;14.20;27.80
20174;DHT22;10246;50.620;7.232;2022-10-22T03:58:36;14.20;27.20
20174;DHT22;10246;50.620;7.232;2022-10-22T04:01:04;14.10;27.00
20174;DHT22;10246;50.620;7.232;2022-10-22T04:03:31;14.20;28.10
20174;DHT22;10246;50.620;7.232;2022-10-22T04:06:00;14.20;28.30
20174;DHT22;10246;50.620;7.232;2022-10-22T04:08:27;14.10;28.20
20174;DHT22;10246;50.620;7.232;2022-10-22T04:10:54;14.10;28.00
20174;DHT22;10246;50.620;7.232;2022-10-22T04:13:20;14.10;28.20
20174;DHT22;10246;50.620;7.232;2022-10-22T04:15:48;14.10;29.50
20174;DHT22;10246;50.620;7.232;2022-10-22T04:18:16;14.20;30.30
20174;DHT22;10246;50.620;7.232;2022-10-22T04:20:43;14.20;30.60
20174;DHT22;10246;50.620;7.232;2022-10-22T04:23:10;14.10;30.00
20174;DHT22;10246;50.620;7.232;2022-10-22T04:25:36;14.10;29.90
20174;DHT22;10246;50.620;7.232;2022-10-22T04:28:05;14.10;29.70
20174;DHT22;10246;50.620;7.232;2022-10-22T04:30:32;14.00;29.30
20174;DHT22;10246;50.620;7.232;2022-10-22T04:33:01;14.00;28.90
20174;DHT22;10246;50.620;7.232;2022-10-22T04:35:28;13.90;28.60
20174;DHT22;10246;50.620;7.232;2022-10-22T04:37:55;14.00;28.10
20174;DHT22;10246;50.620;7.232;2022-10-22T04:40:22;13.90;28.00
20174;DHT22;10246;50.620;7.232;2022-10-22T04:42:48;13.90;28.00
20174;DHT22;10246;50.620;7.232;2022-10-22T04:45:15;13.90;28.00
20174;DHT22;10246;50.620;7.232;2022-10-22T04:47:42;13.80;28.00
20174;DHT22;10246;50.620;7.232;2022-10-22T04:50:10;13.80;27.60
20174;DHT22;10246;50.620;7.232;2022-10-22T04:52:36;13.70;27.30
20174;DHT22;10246;50.620;7.232;2022-10-22T04:55:04;13.70;27.40
20174;DHT22;10246;50.620;7.232;2022-10-22T04:57:30;13.70;27.40
20174;DHT22;10246;50.620;7.232;2022-10-22T04:59:57;13.70;27.50
20174;DHT22;10246;50.620;7.232;2022-10-22T05:02:24;13.70;27.90
20174;DHT22;10246;50.620;7.232;2022-10-22T05:04:51;13.70;27.90
20174;DHT22;10246;50.620;7.232;2022-10-22T05:07:19;13.70;27.90
20174;DHT22;10246;50.620;7.232;2022-10-22T05:09:45;13.60;27.80
20174;DHT22;10246;50.620;7.232;2022-10-22T05:12:12;13.60;27.80
20174;DHT22;10246;50.620;7.232;2022-10-22T05:14:39;13.60;27.80
20174;DHT22;10246;50.620;7.232;2022-10-22T05:17:05;13.60;28.00
20174;DHT22;10246;50.620;7.232;2022-10-22T05:19:32;13.60;28.30
20174;DHT22;10246;50.620;7.232;2022-10-22T05:22:01;13.60;27.80
20174;DHT22;10246;50.620;7.232;2022-10-22T05:24:30;13.60;27.90
20174;DHT22;10246;50.620;7.232;2022-10-22T05:26:58;13.50;27.80
20174;DHT22;10246;50.620;7.232;2022-10-22T05:29:26;13.50;28.10
20174;DHT22;10246;50.620;7.232;2022-10-22T05:31:53;13.50;27.80
20174;DHT22;10246;50.620;7.232;2022-10-22T05:34:19;13.40;27.70
20174;DHT22;10246;50.620;7.232;2022-10-22T05:36:46;13.40;27.70
20174;DHT22;10246;50.620;7.232;2022-10-22T05:39:13;13.40;27.70
20174;DHT22;10246;50.620;7.232;2022-10-22T05:41:41;13.40;27.70
20174;DHT22;10246;50.620;7.232;2022-10-22T05:44:11;13.40;27.70
20174;DHT22;10246;50.620;7.232;2022-10-22T05:46:38;13.50;28.40
20174;DHT22;10246;50.620;7.232;2022-10-22T05:49:06;13.50;28.70
20174;DHT22;10246;50.620;7.232;2022-10-22T05:51:34;13.60;29.90
20174;DHT22;10246;50.620;7.232;2022-10-22T05:54:04;13.60;30.30
20174;DHT22;10246;50.620;7.232;2022-10-22T05:56:32;13.60;29.90
20174;DHT22;10246;50.620;7.232;2022-10-22T05:59:00;13.70;30.50
20174;DHT22;10246;50.620;7.232;2022-10-22T06:01:29;13.70;31.20
20174;DHT22;10246;50.620;7.232;2022-10-22T06:03:58;13.70;31.00
20174;DHT22;10246;50.620;7.232;2022-10-22T06:06:27;13.70;31.10
20174;DHT22;10246;50.620;7.232;2022-10-22T06:08:59;13.70;30.60
20174;DHT22;10246;50.620;7.232;2022-10-22T06:11:26;13.60;30.00
20174;DHT22;10246;50.620;7.232;2022-10-22T06:13:53;13.60;29.60
20174;DHT22;10246;50.620;7.232;2022-10-22T06:16:21;13.50;29.00
20174;DHT22;10246;50.620;7.232;2022-10-22T06:18:47;13.50;28.90
20174;DHT22;10246;50.620;7.232;2022-10-22T06:21:15;13.50;28.80
20174;DHT22;10246;50.620;7.232;2022-10-22T06:23:42;13.50;28.60
20174;DHT22;10246;50.620;7.232;2022-10-22T06:26:10;13.50;28.10
20174;DHT22;10246;50.620;7.232;2022-10-22T06:28:37;13.50;28.00
20174;DHT22;10246;50.620;7.232;2022-10-22T06:31:04;13.40;27.90
20174;DHT22;10246;50.620;7.232;2022-10-22T06:33:33;13.40;28.40
20174;DHT22;10246;50.620;7.232;2022-10-22T06:36:09;13.50;28.50
20174;DHT22;10246;50.620;7.232;2022-10-22T06:38:37;13.50;29.10
20174;DHT22;10246;50.620;7.232;2022-10-22T06:41:05;13.50;29.60
20174;DHT22;10246;50.620;7.232;2022-10-22T06:43:32;13.60;29.90
20174;DHT22;10246;50.620;7.232;2022-10-22T06:45:59;13.60;29.90
20174;DHT22;10246;50.620;7.232;2022-10-22T06:48:27;13.60;30.00
20174;DHT22;10246;50.620;7.232;2022-10-22T06:50:55;13.70;30.60
20174;DHT22;10246;50.620;7.232;2022-10-22T06:53:22;13.70;30.60
20174;DHT22;10246;50.620;7.232;2022-10-22T06:55:49;13.70;30.00
20174;DHT22;10246;50.620;7.232;2022-10-22T06:58:15;13.70;30.60
20174;DHT22;10246;50.620;7.232;2022-10-22T07:00:42;13.80;30.70
20174;DHT22;10246;50.620;7.232;2022-10-22T07:03:11;13.80;30.40
20174;DHT22;10246;50.620;7.232;2022-10-22T07:05:38;13.80;30.30
20174;DHT22;10246;50.620;7.232;2022-10-22T07:08:07;13.80;30.00
20174;DHT22;10246;50.620;7.232;2022-10-22T07:10:34;13.80;30.00
20174;DHT22;10246;50.620;7.232;2022-10-22T07:13:00;13.80;29.90
20174;DHT22;10246;50.620;7.232;2022-10-22T07:15:27;13.90;30.80
20174;DHT22;10246;50.620;7.232;2022-10-22T07:17:54;13.80;30.20
20174;DHT22;10246;50.620;7.232;2022-10-22T07:20:20;13.90;30.20
20174;DHT22;10246;50.620;7.232;2022-10-22T07:22:47;13.90;29.90
20174;DHT22;10246;50.620;7.232;2022-10-22T07:25:15;14.00;29.80
20174;DHT22;10246;50.620;7.232;2022-10-22T07:27:42;13.90;29.80
20174;DHT22;10246;50.620;7.232;2022-10-22T07:30:09;13.90;29.90
20174;DHT22;10246;50.620;7.232;2022-10-22T07:32:36;13.90;30.40
20174;DHT22;10246;50.620;7.232;2022-10-22T07:35:03;13.90;30.50
20174;DHT22;10246;50.620;7.232;2022-10-22T07:37:30;13.90;30.50
20174;DHT22;10246;50.620;7.232;2022-10-22T07:39:57;14.00;30.50
20174;DHT22;10246;50.620;7.232;2022-10-22T07:42:25;13.90;30.30
20174;DHT22;10246;50.620;7.232;2022-10-22T07:44:52;14.00;30.50
20174;DHT22;10246;50.620;7.232;2022-10-22T07:47:18;14.10;30.30
20174;DHT22;10246;50.620;7.232;2022-10-22T07:49:45;14.10;30.20
20174;DHT22;10246;50.620;7.232;2022-10-22T07:52:12;14.20;30.30
20174;DHT22;10246;50.620;7.232;2022-10-22T07:54:38;14.30;30.00
20174;DHT22;10246;50.620;7.232;2022-10-22T07:57:05;14.40;30.00
20174;DHT22;10246;50.620;7.232;2022-10-22T07:59:33;14.40;29.60
20174;DHT22;10246;50.620;7.232;2022-10-22T08:02:00;14.50;30.00
20174;DHT22;10246;50.620;7.232;2022-10-22T08:04:27;14.70;30.80
20174;DHT22;10246;50.620;7.232;2022-10-22T08:06:53;14.80;30.40
20174;DHT22;10246;50.620;7.232;2022-10-22T08:09:20;14.90;29.30
20174;DHT22;10246;50.620;7.232;2022-10-22T08:11:47;15.10;28.80
20174;DHT22;10246;50.620;7.232;2022-10-22T08:14:13;15.20;27.70
20174;DHT22;10246;50.620;7.232;2022-10-22T08:16:41;15.30;27.00
20174;DHT22;10246;50.620;7.232;2022-10-22T08:19:09;15.40;25.60
20174;DHT22;10246;50.620;7.232;2022-10-22T08:21:35;15.50;26.10
20174;DHT22;10246;50.620;7.232;2022-10-22T08:24:02;15.50;26.90
20174;DHT22;10246;50.620;7.232;2022-10-22T08:26:29;15.50;27.50
20174;DHT22;10246;50.620;7.232;2022-10-22T08:28:56;15.50;28.10
20174;DHT22;10246;50.620;7.232;2022-10-22T08:31:23;15.50;28.40
20174;DHT22;10246;50.620;7.232;2022-10-22T08:33:51;15.60;28.60
20174;DHT22;10246;50.620;7.232;2022-10-22T08:36:17;15.50;28.50
20174;DHT22;10246;50.620;7.232;2022-10-22T08:38:44;15.60;29.10
20174;DHT22;10246;50.620;7.232;2022-10-22T08:41:14;15.60;28.90
20174;DHT22;10246;50.620;7.232;2022-10-22T08:44:01;15.60;29.10
20174;DHT22;10246;50.620;7.232;2022-10-22T08:46:48;15.70;27.90
20174;DHT22;10246;50.620;7.232;2022-10-22T08:49:20;15.80;25.10
20174;DHT22;10246;50.620;7.232;2022-10-22T08:51:48;15.90;23.30
20174;DHT22;10246;50.620;7.232;2022-10-22T08:54:26;16.10;21.90
20174;DHT22;10246;50.620;7.232;2022-10-22T08:57:05;16.30;22.20
20174;DHT22;10246;50.620;7.232;2022-10-22T08:59:43;16.40;20.40
20174;DHT22;10246;50.620;7.232;2022-10-22T09:02:21;16.50;19.50
20174;DHT22;10246;50.620;7.232;2022-10-22T09:04:57;16.60;19.90
20174;DHT22;10246;50.620;7.232;2022-10-22T09:07:27;16.70;19.30
20174;DHT22;10246;50.620;7.232;2022-10-22T09:09:57;16.70;19.40
20174;DHT22;10246;50.620;7.232;2022-10-22T09:12:26;16.80;19.40
20174;DHT22;10246;50.620;7.232;2022-10-22T09:14:53;16.90;18.00
20174;DHT22;10246;50.620;7.232;2022-10-22T09:17:26;17.00;13.80
20174;DHT22;10246;50.620;7.232;2022-10-22T09:20:04;17.10;12.60
20174;DHT22;10246;50.620;7.232;2022-10-22T09:22:38;17.00;10.60
20174;DHT22;10246;50.620;7.232;2022-10-22T09:25:16;17.10;11.30
20174;DHT22;10246;50.620;7.232;2022-10-22T09:27:45;17.00;14.20
20174;DHT22;10246;50.620;7.232;2022-10-22T09:30:15;17.00;12.00
20174;DHT22;10246;50.620;7.232;2022-10-22T09:32:42;16.90;12.00
20174;DHT22;10246;50.620;7.232;2022-10-22T09:35:11;17.00;13.50
20174;DHT22;10246;50.620;7.232;2022-10-22T09:37:47;16.90;13.30
20174;DHT22;10246;50.620;7.232;2022-10-22T09:40:14;16.80;15.60
20174;DHT22;10246;50.620;7.232;2022-10-22T09:42:41;16.80;12.50
20174;DHT22;10246;50.620;7.232;2022-10-22T09:45:17;16.90;11.80
20174;DHT22;10246;50.620;7.232;2022-10-22T09:47:45;16.90;13.30
20174;DHT22;10246;50.620;7.232;2022-10-22T09:50:26;16.90;13.10
20174;DHT22;10246;50.620;7.232;2022-10-22T09:52:58;16.90;11.60
20174;DHT22;10246;50.620;7.232;2022-10-22T09:55:27;16.90;12.10
20174;DHT22;10246;50.620;7.232;2022-10-22T09:57:55;16.90;11.70
20174;DHT22;10246;50.620;7.232;2022-10-22T10:00:25;17.00;12.20
20174;DHT22;10246;50.620;7.232;2022-10-22T10:02:56;17.00;13.30
20174;DHT22;10246;50.620;7.232;2022-10-22T10:05:30;17.00;12.40
20174;DHT22;10246;50.620;7.232;2022-10-22T10:07:57;17.10;11.20
20174;DHT22;10246;50.620;7.232;2022-10-22T10:10:31;17.20;9.00
20174;DHT22;10246;50.620;7.232;2022-10-22T10:13:06;17.20;10.30
20174;DHT22;10246;50.620;7.232;2022-10-22T10:15:41;17.30;11.30
20174;DHT22;10246;50.620;7.232;2022-10-22T10:18:21;17.40;10.80
20174;DHT22;10246;50.620;7.232;2022-10-22T10:20:59;17.40;9.70
20174;DHT22;10246;50.620;7.232;2022-10-22T10:23:32;17.50;9.40
20174;DHT22;10246;50.620;7.232;2022-10-22T10:26:06;17.60;8.80
20174;DHT22;10246;50.620;7.232;2022-10-22T10:28:42;17.60;6.80
20174;DHT22;10246;50.620;7.232;2022-10-22T10:31:16;17.70;3.60
20174;DHT22;10246;50.620;7.232;2022-10-22T10:33:52;17.70;2.80
20174;DHT22;10246;50.620;7.232;2022-10-22T10:36:28;17.80;3.20
20174;DHT22;10246;50.620;7.232;2022-10-22T10:39:02;17.80;3.20
20174;DHT22;10246;50.620;7.232;2022-10-22T10:41:41;17.80;3.60
20174;DHT22;10246;50.620;7.232;2022-10-22T10:44:39;17.80;3.00
20174;DHT22;10246;50.620;7.232;2022-10-22T10:47:18;17.80;3.40
20174;DHT22;10246;50.620;7.232;2022-10-22T10:49:53;17.80;3.60
20174;DHT22;10246;50.620;7.232;2022-10-22T10:52:29;17.80;3.10
20174;DHT22;10246;50.620;7.232;2022-10-22T10:55:08;17.80;1.70
20174;DHT22;10246;50.620;7.232;2022-10-22T10:57:43;17.80;1.00
20174;DHT22;10246;50.620;7.232;2022-10-22T11:00:15;17.80;2.40
20174;DHT22;10246;50.620;7.232;2022-10-22T11:02:57;17.80;1.90
20174;DHT22;10246;50.620;7.232;2022-10-22T11:05:29;17.80;1.80
20174;DHT22;10246;50.620;7.232;2022-10-22T11:08:03;17.80;1.00
20174;DHT22;10246;50.620;7.232;2022-10-22T11:10:34;17.90;1.00
20174;DHT22;10246;50.620;7.232;2022-10-22T11:13:07;18.00;1.00
20174;DHT22;10246;50.620;7.232;2022-10-22T11:15:39;18.10;1.00
20174;DHT22;10246;50.620;7.232;2022-10-22T11:18:16;18.10;1.00
20174;DHT22;10246;50.620;7.232;2022-10-22T11:20:54;18.20;1.00
20174;DHT22;10246;50.620;7.232;2022-10-22T11:23:27;18.30;1.00
20174;DHT22;10246;50.620;7.232;2022-10-22T11:25:58;18.40;1.00
20174;DHT22;10246;50.620;7.232;2022-10-22T11:28:28;18.50;1.00
20174;DHT22;10246;50.620;7.232;2022-10-22T11:31:01;18.50;1.00
20174;DHT22;10246;50.620;7.232;2022-10-22T11:33:35;18.60;1.00
20174;DHT22;10246;50.620;7.232;2022-10-22T11:36:05;18.60;1.00
20174;DHT22;10246;50.620;7.232;2022-10-22T11:38:34;18.70;1.00
20174;DHT22;10246;50.620;7.232;2022-10-22T11:41:05;18.70;1.00
20174;DHT22;10246;50.620;7.232;2022-10-22T11:43:34;18.60;1.00
20174;DHT22;10246;50.620;7.232;2022-10-22T11:49:22;18.70;1.00
20174;DHT22;10246;50.620;7.232;2022-10-22T11:51:50;18.80;1.00
20174;DHT22;10246;50.620;7.232;2022-10-22T11:54:37;18.80;1.00
20174;DHT22;10246;50.620;7.232;2022-10-22T11:57:18;18.80;1.00
20174;DHT22;10246;50.620;7.232;2022-10-22T11:59:49;18.80;1.00
20174;DHT22;10246;50.620;7.232;2022-10-22T12:02:39;18.90;1.00
20174;DHT22;10246;50.620;7.232;2022-10-22T12:05:34;19.00;1.00
20174;DHT22;10246;50.620;7.232;2022-10-22T12:08:14;19.00;1.00
20174;DHT22;10246;50.620;7.232;2022-10-22T12:10:56;19.00;1.00
20174;DHT22;10246;50.620;7.232;2022-10-22T12:13:26;19.00;1.00
20174;DHT22;10246;50.620;7.232;2022-10-22T12:15:56;19.00;1.00
20174;DHT22;10246;50.620;7.232;2022-10-22T12:18:26;19.00;1.00
20174;DHT22;10246;50.620;7.232;2022-10-22T12:20:53;19.10;1.00
20174;DHT22;10246;50.620;7.232;2022-10-22T12:23:25;19.20;1.00
20174;DHT22;10246;50.620;7.232;2022-10-22T12:25:55;19.20;1.00
20174;DHT22;10246;50.620;7.232;2022-10-22T12:28:22;19.40;1.00
20174;DHT22;10246;50.620;7.232;2022-10-22T12:30:49;19.70;1.00
20174;DHT22;10246;50.620;7.232;2022-10-22T12:33:18;20.00;1.00
20174;DHT22;10246;50.620;7.232;2022-10-22T12:35:47;20.10;1.00
20174;DHT22;10246;50.620;7.232;2022-10-22T12:38:17;20.20;1.00
20174;DHT22;10246;50.620;7.232;2022-10-22T12:40:45;20.10;1.00
20174;DHT22;10246;50.620;7.232;2022-10-22T12:43:15;20.00;1.00
20174;DHT22;10246;50.620;7.232;2022-10-22T12:45:44;20.10;1.00
20174;DHT22;10246;50.620;7.232;2022-10-22T12:48:15;20.20;1.00
20174;DHT22;10246;50.620;7.232;2022-10-22T12:50:44;20.20;1.00
20174;DHT22;10246;50.620;7.232;2022-10-22T12:53:14;20.00;1.00
20174;DHT22;10246;50.620;7.232;2022-10-22T12:55:45;20.00;1.00
20174;DHT22;10246;50.620;7.232;2022-10-22T12:58:19;19.80;1.00
20174;DHT22;10246;50.620;7.232;2022-10-22T13:00:47;19.80;1.00
20174;DHT22;10246;50.620;7.232;2022-10-22T13:03:25;19.90;1.00
20174;DHT22;10246;50.620;7.232;2022-10-22T13:05:52;19.90;1.00
20174;DHT22;10246;50.620;7.232;2022-10-22T13:08:21;20.00;1.00
20174;DHT22;10246;50.620;7.232;2022-10-22T13:10:50;20.00;1.00
20174;DHT22;10246;50.620;7.232;2022-10-22T13:13:32;20.00;1.00
20174;DHT22;10246;50.620;7.232;2022-10-22T13:16:13;20.00;1.00
20174;DHT22;10246;50.620;7.232;2022-10-22T13:18:41;19.90;1.00
20174;DHT22;10246;50.620;7.232;2022-10-22T13:21:28;19.90;1.00
20174;DHT22;10246;50.620;7.232;2022-10-22T13:23:57;19.90;1.00
20174;DHT22;10246;50.620;7.232;2022-10-22T13:26:29;20.10;1.00
20174;DHT22;10246;50.620;7.232;2022-10-22T13:28:59;20.20;1.00
20174;DHT22;10246;50.620;7.232;2022-10-22T13:31:28;20.20;1.00
20174;DHT22;10246;50.620;7.232;2022-10-22T13:34:00;20.20;1.00
20174;DHT22;10246;50.620;7.232;2022-10-22T13:36:27;20.10;1.00
20174;DHT22;10246;50.620;7.232;2022-10-22T13:38:54;20.10;1.00
20174;DHT22;10246;50.620;7.232;2022-10-22T13:41:23;20.00;1.00
20174;DHT22;10246;50.620;7.232;2022-10-22T13:43:50;19.90;1.00
20174;DHT22;10246;50.620;7.232;2022-10-22T13:46:19;19.90;1.00
20174;DHT22;10246;50.620;7.232;2022-10-22T13:48:48;19.90;1.00
20174;DHT22;10246;50.620;7.232;2022-10-22T13:51:19;19.90;1.00
20174;DHT22;10246;50.620;7.232;2022-10-22T13:53:47;19.90;1.00
20174;DHT22;10246;50.620;7.232;2022-10-22T13:56:16;19.90;1.00
20174;DHT22;10246;50.620;7.232;2022-10-22T13:58:45;19.90;1.00
20174;DHT22;10246;50.620;7.232;2022-10-22T14:01:19;20.00;1.00
20174;DHT22;10246;50.620;7.232;2022-10-22T14:03:47;20.00;1.00
20174;DHT22;10246;50.620;7.232;2022-10-22T14:06:15;20.00;1.00
20174;DHT22;10246;50.620;7.232;2022-10-22T14:08:44;20.00;1.00
20174;DHT22;10246;50.620;7.232;2022-10-22T14:11:12;20.00;1.00
20174;DHT22;10246;50.620;7.232;2022-10-22T14:13:39;20.10;1.00
20174;DHT22;10246;50.620;7.232;2022-10-22T14:16:07;20.20;1.00
20174;DHT22;10246;50.620;7.232;2022-10-22T14:18:39;20.30;1.00
20174;DHT22;10246;50.620;7.232;2022-10-22T14:21:06;20.30;1.00
20174;DHT22;10246;50.620;7.232;2022-10-22T14:23:34;20.20;1.00
20174;DHT22;10246;50.620;7.232;2022-10-22T14:26:02;20.20;1.00
20174;DHT22;10246;50.620;7.232;2022-10-22T14:28:29;20.20;1.00
20174;DHT22;10246;50.620;7.232;2022-10-22T14:30:56;20.20;1.00
20174;DHT22;10246;50.620;7.232;2022-10-22T14:33:25;20.10;1.00
20174;DHT22;10246;50.620;7.232;2022-10-22T14:35:53;20.20;1.00
20174;DHT22;10246;50.620;7.232;2022-10-22T14:38:20;20.20;1.00
20174;DHT22;10246;50.620;7.232;2022-10-22T14:40:48;20.20;1.00
20174;DHT22;10246;50.620;7.232;2022-10-22T14:43:20;20.20;1.00
20174;DHT22;10246;50.620;7.232;2022-10-22T14:45:48;20.20;1.00
20174;DHT22;10246;50.620;7.232;2022-10-22T14:48:15;20.30;1.00
20174;DHT22;10246;50.620;7.232;2022-10-22T14:50:42;20.20;1.00
20174;DHT22;10246;50.620;7.232;2022-10-22T14:53:10;20.20;1.00
20174;DHT22;10246;50.620;7.232;2022-10-22T14:55:38;20.20;1.00
20174;DHT22;10246;50.620;7.232;2022-10-22T14:58:05;20.20;1.00
20174;DHT22;10246;50.620;7.232;2022-10-22T15:00:32;20.30;1.00
20174;DHT22;10246;50.620;7.232;2022-10-22T15:03:01;20.30;1.00
20174;DHT22;10246;50.620;7.232;2022-10-22T15:05:28;20.40;1.00
20174;DHT22;10246;50.620;7.232;2022-10-22T15:07:54;20.50;1.00
20174;DHT22;10246;50.620;7.232;2022-10-22T15:10:24;20.50;1.00
20174;DHT22;10246;50.620;7.232;2022-10-22T15:12:51;20.40;1.00
20174;DHT22;10246;50.620;7.232;2022-10-22T15:15:18;20.40;1.00
20174;DHT22;10246;50.620;7.232;2022-10-22T15:17:45;20.30;1.00
20174;DHT22;10246;50.620;7.232;2022-10-22T15:20:12;20.30;1.00
20174;DHT22;10246;50.620;7.232;2022-10-22T15:22:38;20.20;1.00
20174;DHT22;10246;50.620;7.232;2022-10-22T15:25:07;20.20;1.00
20174;DHT22;10246;50.620;7.232;2022-10-22T15:27:35;20.20;1.00
20174;DHT22;10246;50.620;7.232;2022-10-22T15:30:02;20.10;1.00
20174;DHT22;10246;50.620;7.232;2022-10-22T15:32:29;20.00;1.00
20174;DHT22;10246;50.620;7.232;2022-10-22T15:34:58;19.90;1.00
20174;DHT22;10246;50.620;7.232;2022-10-22T15:37:25;19.90;1.00
20174;DHT22;10246;50.620;7.232;2022-10-22T15:39:52;19.80;1.00
20174;DHT22;10246;50.620;7.232;2022-10-22T15:42:18;19.70;1.00
20174;DHT22;10246;50.620;7.232;2022-10-22T15:44:47;19.60;1.00
20174;DHT22;10246;50.620;7.232;2022-10-22T15:47:13;19.50;1.00
20174;DHT22;10246;50.620;7.232;2022-10-22T15:49:40;19.40;1.00
20174;DHT22;10246;50.620;7.232;2022-10-22T15:52:07;19.20;1.00
20174;DHT22;10246;50.620;7.232;2022-10-22T15:54:34;19.10;1.00